Terminal Aerodrome Forecast
Issued by NWS

Home | Current Version | Previous Version | Text Only | Print | Product List | Glossary On
Versions: 1 2 3 4 5 6 7 8 9 10 11 12 13 14 15 16 17 18 19 20 21 22 23 24 25 26
000
FTPA31 PHFO 172340
TAFHOG
TAF
PHOG 172340Z 1800/1824 21016G24KT P6SM FEW035 SCT060
     FM180900 24007KT 6SM -SHRA SCT025 OVC040
     FM182100 02012KT P6SM VCSH SCT025 BKN045
      AMD LTD TO VIS AND WIND 1809/1816=

USA.gov is the U.S. government's official web portal to all federal, state and local government web resources and services.